This is the latest recevied weather packets stored in our database for station/object SV9TNF-2. If no packets are shown the sender has not sent any weather packets the latest 10 day(s).
| Time | Temp. | Humidity | Pressure | Rain* | Wind** | Luminosity | Snow |
|---|---|---|---|---|---|---|---|
| 1777611612 | 18.33° C | 62% | 1019.6 hPa | 0 mm | 0.45 m/s, 241° | - | - |
| 1777611312 | 18.33° C | 58% | 1019.6 hPa | 0 mm | 0 m/s | - | - |
| 1777611012 | 18.33° C | 56% | 1019.6 hPa | 0 mm | 4.02 m/s, 164° | - | - |
| 1777610712 | 17.22° C | 60% | 1019.6 hPa | 0 mm | 2.68 m/s, 161° | - | - |
| 1777610412 | 17.78° C | 58% | 1019.6 hPa | 0 mm | 1.79 m/s, 262° | - | - |
| 1777610112 | 17.78° C | 54% | 1019 hPa | 0 mm | 1.79 m/s, 169° | - | - |
| 1777609812 | 17.22° C | 55% | 1019 hPa | 0 mm | 4.92 m/s, 186° | - | - |
| 1777609511 | 17.22° C | 53% | 1019 hPa | 0 mm | 5.81 m/s, 187° | - | - |
| 1777609212 | 17.78° C | 50% | 1019.3 hPa | 0 mm | 8.94 m/s, 166° | - | - |
| 1777608911 | 16.67° C | 55% | 1019.3 hPa | 0 mm | 3.58 m/s, 180° | - | - |
| 1777608611 | 17.22° C | 51% | 1019.3 hPa | 0 mm | 5.81 m/s, 205° | - | - |
| 1777608311 | 17.22° C | 52% | 1019.3 hPa | 0 mm | 4.92 m/s, 212° | - | - |
| 1777608011 | 17.22° C | 51% | 1019.3 hPa | 0 mm | 6.71 m/s, 180° | - | - |
| 1777607711 | 17.78° C | 48% | 1019.3 hPa | 0 mm | 6.26 m/s, 180° | - | - |
| 1777607411 | 17.22° C | 49% | 1019.3 hPa | 0 mm | 5.81 m/s, 170° | - | - |
| 1777607111 | 17.22° C | 50% | 1019 hPa | 0 mm | 8.05 m/s, 180° | - | - |
| 1777606811 | 16.67° C | 52% | 1019 hPa | 0 mm | 4.92 m/s, 189° | - | - |
| 1777606511 | 16.67° C | 52% | 1019 hPa | 0 mm | 3.58 m/s, 228° | - | - |
| 1777606210 | 16.67° C | 52% | 1019 hPa | 0 mm | 8.05 m/s, 182° | - | - |
| 1777605911 | 16.67° C | 53% | 1019 hPa | 0 mm | 6.26 m/s, 142° | - | - |
| 1777605610 | 17.22° C | 50% | 1019 hPa | 0 mm | 6.71 m/s, 192° | - | - |
| 1777605310 | 17.78° C | 45% | 1019 hPa | 0 mm | 5.81 m/s, 170° | - | - |
| 1777605010 | 18.33° C | 44% | 1019 hPa | 0 mm | 4.47 m/s, 183° | - | - |
| 1777604710 | 16.67° C | 50% | 1019 hPa | 0 mm | 3.13 m/s, 183° | - | - |
| 1777604410 | 16.67° C | 51% | 1019 hPa | 0 mm | 4.02 m/s, 226° | - | - |
* Rain latest hour (hover to see other rain measurements)
** Current wind speed in m/s (hover to see current wind gust speed)